Palatine, IL (60074)

5:56 AM CDT on July 29, 2016 (GMT -0500)
Pebble Creek | | Change Station
Active Advisory: Beach Hazard Statement Active Notice: Local Storm Report

Elev 755 ft 42.12 °N, 88.03 °W | Updated 11 minutes ago

Mostly Cloudy
Mostly Cloudy
68.4 °F
Feels Like 68.4 °F
N
0.0
Wind Variable Wind from NNE

Today
High -- | Low -- °F
--% Chance of Precip.
Yesterday
High -- | Low -- °F
Precip. -- in
Pressure 29.93 in
Visibility 10.0 miles
Clouds Mostly Cloudy 4900 ft
Dew Point 68 °F
Humidity 97%
Rainfall 0.00 in
Snow Depth Not available.
5:42 AM 8:13 PM
Waning Crescent, 23% visible
METAR KPWK 291052Z 02003KT 10SM BKN049 21/20 A2993 RMK AO2 SLP133 T02060200
Pressure 29.93 in
Visibility 10.0 miles
Clouds Mostly Cloudy 4900 ft
Dew Point 68 °F
Humidity 97%
Rainfall 0.00 in
Snow Depth Not available.
5:42 AM 8:13 PM
Waning Crescent, 23% visible
METAR KPWK 291052Z 02003KT 10SM BKN049 21/20 A2993 RMK AO2 SLP133 T02060200

10-Day Weather Forecast

Almanac

Astronomy

Jul. 29, 2016 Rise Set
Actual Time
Civil Twilight
Nautical Twilight
Astronomical Twilight
Moon
Length of Visible Light
Length of Day
Tomorrow will be .
, % of the Moon is Illuminated

Today's Extremes

State Highs State Lows

Community

WunderPhotos

Upload Photos

1,928,311 photos uploaded!

WunderBlog® & News

Nearby

Air Quality

  Air Quality AQ Index Pollutant
Not available.

Snow Depth

Station Depth Elevation

Earthquake Activity

City Distance Mag. Time & Date
Minimum magnitude displayed is 2.5.

Coastal Water Temperatures

Place Temperature

Stations

Nearby Weather Stations

Station Location Temp. Windchill Dew Point Humidity Wind Precip. Elev Updated Type
                   

Watches & Warnings

Beach Hazard Statement
Issued: 3:29 AM CDT Jul. 29, 2016 – National Weather Service

... Beach hazards statement now in effect through late tonight...

* location... northeast Illinois beaches and Northwest Indiana
beaches on Northern Lake County.

* Forecast wave heights... 3 to 5 feet.

* Strong rip currents and structural currents expected.

Precautionary/preparedness actions...

Life threatening waves and currents are expected at the beaches.
People visiting the beaches should stay out of the water.

Rip currents are powerful channels of water flowing quickly away
from shore... which occur most often at low spots or breaks in
sandbars. Rip currents can sweep you into deeper water.

Structural currents form along piers where longshore currents and
wave action flow into the structure. Structural currents can
sweep you into deeper water along the pier structure.

Exposed beaches are more likely to experience the most
significant wave and current impacts. Impacts at beaches with
protective breakwalls or jetties will be subject to the
orientation of structures as well as wind and wave direction.

For information on swim advisories or bans at Chicago beaches
visit... www.Cpdbeaches.Com.



Mtf